createdAt,value
2022-10-01T00:01:42.857Z,100444.34
2022-10-01T00:04:28.976Z,100431.38
2022-10-01T00:07:15.183Z,100440.00
2022-10-01T00:10:00.684Z,100419.66
2022-10-01T00:12:48.104Z,100436.00
2022-10-01T00:15:33.637Z,100431.06
2022-10-01T00:18:19.115Z,100415.81
2022-10-01T00:21:18.763Z,100416.59
2022-10-01T00:24:06.463Z,100420.59
2022-10-01T00:26:52.130Z,100407.34
2022-10-01T00:29:37.641Z,100395.56
2022-10-01T00:32:23.985Z,100395.94
2022-10-01T00:35:09.830Z,100392.09
2022-10-01T00:37:55.271Z,100385.09
2022-10-01T00:40:40.807Z,100394.78
2022-10-01T00:43:29.109Z,100396.72
2022-10-01T00:46:23.814Z,100393.88
2022-10-01T00:49:14.994Z,100385.47
2022-10-01T00:52:05.221Z,100352.78
2022-10-01T00:54:55.795Z,100369.91
2022-10-01T00:57:42.660Z,100376.22
2022-10-01T01:00:28.989Z,100367.09
2022-10-01T01:03:15.468Z,100360.13
2022-10-01T01:06:00.622Z,100369.22
2022-10-01T01:08:46.028Z,100348.00
2022-10-01T01:11:37.265Z,100358.06
2022-10-01T01:14:31.276Z,100349.34
2022-10-01T01:17:25.726Z,100360.47
2022-10-01T01:20:44.795Z,100353.84
2022-10-01T01:24:22.884Z,100349.72
2022-10-01T01:27:24.262Z,100324.59
2022-10-01T01:30:12.304Z,100339.34
2022-10-01T01:33:04.522Z,100317.94
2022-10-01T01:35:54.464Z,100321.94
2022-10-01T01:38:49.074Z,100329.72
2022-10-01T01:41:38.737Z,100328.31
2022-10-01T01:44:30.356Z,100318.78
2022-10-01T01:47:21.972Z,100315.75
2022-10-01T01:50:08.135Z,100306.78
2022-10-01T01:52:54.352Z,100309.41
2022-10-01T01:55:40.130Z,100298.94
2022-10-01T01:58:26.270Z,100276.28
2022-10-01T02:01:39.656Z,100296.50
2022-10-01T02:04:34.368Z,100292.00
2022-10-01T02:07:48.631Z,100289.22
2022-10-01T02:11:03.222Z,100276.19
2022-10-01T02:14:10.146Z,100283.19
2022-10-01T02:17:01.451Z,100271.88
2022-10-01T02:19:57.088Z,100259.84
2022-10-01T02:22:50.208Z,100271.63
2022-10-01T02:25:42.153Z,100268.16
2022-10-01T02:28:32.730Z,100251.56
2022-10-01T02:31:20.650Z,100252.59
2022-10-01T02:34:12.495Z,100263.41
2022-10-01T02:37:00.924Z,100265.63
2022-10-01T02:39:49.579Z,100256.50
2022-10-01T02:42:36.110Z,100253.28
2022-10-01T02:45:25.834Z,100259.59
2022-10-01T02:48:16.672Z,100249.41
2022-10-01T02:51:15.824Z,100228.59
2022-10-01T02:54:09.130Z,100234.94
2022-10-01T02:57:14.507Z,100228.91
2022-10-01T03:00:07.368Z,100224.34
2022-10-01T03:02:53.303Z,100210.97
2022-10-01T03:05:38.661Z,100210.72
2022-10-01T03:08:23.877Z,100198.34
2022-10-01T03:11:09.531Z,100196.00
2022-10-01T03:13:54.781Z,100196.59
2022-10-01T03:16:40.552Z,100191.50
2022-10-01T03:19:26.101Z,100176.06
2022-10-01T03:22:13.838Z,100185.91
2022-10-01T03:24:59.706Z,100174.66
2022-10-01T03:27:46.394Z,100167.06
2022-10-01T03:30:33.150Z,100156.50
2022-10-01T03:33:18.675Z,100162.75
2022-10-01T03:36:04.649Z,100150.75
2022-10-01T03:38:50.026Z,100149.44
2022-10-01T03:41:35.687Z,100152.25
2022-10-01T03:44:21.756Z,100131.16
2022-10-01T03:47:07.274Z,100150.00
2022-10-01T03:49:52.748Z,100145.16
2022-10-01T03:52:38.429Z,100139.06
2022-10-01T03:55:25.241Z,100119.69
2022-10-01T03:58:10.660Z,100136.28
2022-10-01T04:00:56.524Z,100133.34
2022-10-01T04:03:43.085Z,100134.63
2022-10-01T04:06:28.427Z,100121.47
2022-10-01T04:09:14.244Z,100111.25
2022-10-01T04:11:59.734Z,100116.50
2022-10-01T04:14:45.239Z,100110.81
2022-10-01T04:17:30.772Z,100111.63
2022-10-01T04:20:16.641Z,100117.56
2022-10-01T04:23:02.687Z,100115.84
2022-10-01T04:25:48.355Z,100108.47
2022-10-01T04:28:34.618Z,100095.63
2022-10-01T04:31:25.910Z,100094.06
2022-10-01T04:34:11.567Z,100090.88
2022-10-01T04:36:56.845Z,100097.06
2022-10-01T04:39:42.397Z,100096.41
2022-10-01T04:42:27.913Z,100093.41
2022-10-01T04:45:13.589Z,100080.75
2022-10-01T04:47:59.411Z,100088.41
2022-10-01T04:50:45.013Z,100086.84
2022-10-01T04:53:30.715Z,100077.94
2022-10-01T04:56:16.404Z,100067.78
2022-10-01T04:59:01.912Z,100045.25
2022-10-01T05:01:47.586Z,100038.50
2022-10-01T05:04:33.357Z,100036.81
2022-10-01T05:07:19.398Z,100061.38
2022-10-01T05:10:06.031Z,100046.66
2022-10-01T05:12:52.027Z,100038.03
2022-10-01T05:15:41.312Z,100042.44
2022-10-01T05:18:26.690Z,100025.78
2022-10-01T05:21:12.139Z,100019.03
2022-10-01T05:23:57.540Z,100014.44
2022-10-01T05:26:43.034Z,99987.28
2022-10-01T05:29:28.612Z,100009.72
2022-10-01T05:32:14.896Z,100012.84
2022-10-01T05:35:00.270Z,99977.22
2022-10-01T05:37:46.153Z,100001.06
2022-10-01T05:40:31.330Z,99998.31
2022-10-01T05:43:18.565Z,99988.59
2022-10-01T05:46:05.520Z,99987.56
2022-10-01T05:48:51.346Z,99983.22
2022-10-01T05:51:37.363Z,99987.47
2022-10-01T05:54:23.127Z,99969.47
2022-10-01T05:57:09.378Z,99966.84
2022-10-01T05:59:54.754Z,99972.47
2022-10-01T06:02:40.451Z,99957.66
2022-10-01T06:05:28.267Z,99956.34
2022-10-01T06:08:14.677Z,99944.75
2022-10-01T06:11:02.342Z,99938.91
2022-10-01T06:13:48.402Z,99946.88
2022-10-01T06:16:34.115Z,99939.13
2022-10-01T06:19:19.636Z,99928.00
2022-10-01T06:22:04.871Z,99923.50
2022-10-01T06:24:54.805Z,99924.50
2022-10-01T06:27:42.165Z,99916.94
2022-10-01T06:30:29.539Z,99906.06
2022-10-01T06:33:16.562Z,99912.75
2022-10-01T06:36:04.030Z,99896.16
2022-10-01T06:38:49.688Z,99911.31
2022-10-01T06:41:35.245Z,99900.81
2022-10-01T06:44:21.653Z,99878.44
2022-10-01T06:47:07.044Z,99882.56
2022-10-01T06:49:52.772Z,99889.97
2022-10-01T06:52:50.097Z,99876.78
2022-10-01T06:55:36.731Z,99862.06
2022-10-01T06:58:26.269Z,99874.34
2022-10-01T07:01:11.948Z,99867.44
2022-10-01T07:03:59.041Z,99870.41
2022-10-01T07:06:44.327Z,99868.63
2022-10-01T07:09:29.976Z,99867.69
2022-10-01T07:12:15.492Z,99864.88
2022-10-01T07:15:00.944Z,99860.69
2022-10-01T07:17:49.552Z,99856.47
2022-10-01T07:20:39.457Z,99853.94
2022-10-01T07:23:24.799Z,99876.41
2022-10-01T07:26:10.193Z,99868.63
2022-10-01T07:28:56.029Z,99857.59
2022-10-01T07:31:41.418Z,99887.34
2022-10-01T07:34:29.287Z,99892.19
2022-10-01T07:37:14.884Z,99851.31
2022-10-01T07:40:04.137Z,99855.81
2022-10-01T07:42:56.750Z,99850.84
2022-10-01T07:45:42.271Z,99864.69
2022-10-01T07:48:28.055Z,99829.03
2022-10-01T07:51:13.616Z,99840.63
2022-10-01T07:53:59.329Z,99839.97
2022-10-01T07:56:44.751Z,99825.50
2022-10-01T07:59:31.211Z,99841.03
2022-10-01T08:02:17.633Z,99830.16
2022-10-01T08:05:18.029Z,99833.59
2022-10-01T08:08:06.210Z,99830.69
2022-10-01T08:10:52.030Z,99842.56
2022-10-01T08:13:37.656Z,99816.28
2022-10-01T08:16:23.101Z,99825.53
2022-10-01T08:19:08.688Z,99810.63
2022-10-01T08:21:54.089Z,99794.78
2022-10-01T08:24:39.717Z,99802.44
2022-10-01T08:27:26.397Z,99803.97
2022-10-01T08:30:12.079Z,99800.97
2022-10-01T08:32:59.624Z,99805.47
2022-10-01T08:35:45.225Z,99795.97
2022-10-01T08:38:30.697Z,99807.00
2022-10-01T08:41:43.089Z,99797.56
2022-10-01T08:44:37.434Z,99803.00
2022-10-01T08:47:31.162Z,99802.91
2022-10-01T08:50:28.901Z,99798.72
2022-10-01T08:53:23.097Z,99792.53
2022-10-01T08:56:33.982Z,99803.50
2022-10-01T08:59:52.542Z,99799.19
2022-10-01T09:02:40.644Z,99799.09
2022-10-01T09:05:52.850Z,99812.84
2022-10-01T09:09:14.826Z,99802.91
2022-10-01T09:12:26.268Z,99801.22
2022-10-01T09:15:37.780Z,99792.63
2022-10-01T09:18:41.972Z,99809.63
2022-10-01T09:21:39.209Z,99802.22
2022-10-01T09:24:51.416Z,99805.22
2022-10-01T09:27:38.471Z,99808.81
2022-10-01T09:30:27.046Z,99810.47
2022-10-01T09:33:22.664Z,99814.19
2022-10-01T09:36:26.281Z,99802.66
2022-10-01T09:39:39.900Z,99805.47
2022-10-01T09:42:27.680Z,99789.34
2022-10-01T09:45:15.133Z,99796.28
2022-10-01T09:48:17.480Z,99794.91
2022-10-01T09:51:25.145Z,99788.41
2022-10-01T09:54:31.101Z,99799.25
2022-10-01T09:57:35.057Z,99785.84
2022-10-01T10:00:22.603Z,99780.91
2022-10-01T10:03:08.302Z,99796.97
2022-10-01T10:05:53.693Z,99790.69
2022-10-01T10:08:42.417Z,99809.63
2022-10-01T10:11:31.161Z,99796.31
2022-10-01T10:14:29.702Z,99802.53
2022-10-01T10:17:20.600Z,99801.25
2022-10-01T10:20:16.355Z,99796.56
2022-10-01T10:23:15.800Z,99804.09
2022-10-01T10:26:05.687Z,99798.53
2022-10-01T10:28:51.231Z,99794.09
2022-10-01T10:31:41.345Z,99795.69
2022-10-01T10:34:32.611Z,99804.06
2022-10-01T10:37:26.944Z,99801.38
2022-10-01T10:40:24.547Z,99800.63
2022-10-01T10:43:22.509Z,99805.66
2022-10-01T10:46:09.712Z,99807.00
2022-10-01T10:49:09.251Z,99807.00
2022-10-01T10:51:56.553Z,99806.38
2022-10-01T10:54:47.694Z,99808.59
2022-10-01T10:57:34.492Z,99823.94
2022-10-01T11:00:23.918Z,99816.78
2022-10-01T11:03:18.338Z,99816.13
2022-10-01T11:06:12.356Z,99827.34
2022-10-01T11:09:07.199Z,99829.81
2022-10-01T11:12:06.227Z,99832.88
2022-10-01T11:14:57.409Z,99833.22
2022-10-01T11:17:55.312Z,99823.97
2022-10-01T11:21:19.339Z,99826.69
2022-10-01T11:24:05.069Z,99834.81
2022-10-01T11:27:28.181Z,99841.25
2022-10-01T11:30:25.890Z,99845.94
2022-10-01T11:33:33.077Z,99841.06
2022-10-01T11:36:36.764Z,99847.47
2022-10-01T11:39:25.295Z,99839.97
2022-10-01T11:42:16.832Z,99852.56
2022-10-01T11:45:25.344Z,99846.94
2022-10-01T11:48:17.623Z,99851.38
2022-10-01T11:51:12.374Z,99858.09
2022-10-01T11:54:07.799Z,99859.31
2022-10-01T11:57:15.355Z,99848.00
2022-10-01T12:00:07.464Z,99862.47
2022-10-01T12:03:01.944Z,99848.00
2022-10-01T12:05:47.825Z,99862.25
2022-10-01T12:08:37.549Z,99852.50
2022-10-01T12:11:31.752Z,99859.91
2022-10-01T12:14:27.613Z,99845.56
2022-10-01T12:17:20.131Z,99862.13
2022-10-01T12:20:15.116Z,99860.41
2022-10-01T12:23:03.640Z,99864.28
2022-10-01T12:26:05.697Z,99871.16
2022-10-01T12:29:00.313Z,99861.56
2022-10-01T12:31:57.297Z,99860.19
2022-10-01T12:35:04.403Z,99843.78
2022-10-01T12:37:55.000Z,99851.25
2022-10-01T12:40:51.654Z,99857.66
2022-10-01T12:43:55.599Z,99849.06
2022-10-01T12:46:45.925Z,99850.84
2022-10-01T12:49:38.989Z,99858.53
2022-10-01T12:52:39.747Z,99851.34
2022-10-01T12:55:51.633Z,99849.72
2022-10-01T12:59:10.789Z,99847.66
2022-10-01T13:02:17.778Z,99841.47
2022-10-01T13:05:23.705Z,99836.66
2022-10-01T13:08:18.144Z,99846.19
2022-10-01T13:11:28.421Z,99837.94
2022-10-01T13:14:18.849Z,99841.72
2022-10-01T13:17:15.719Z,99830.47
2022-10-01T13:20:40.979Z,99836.44
2022-10-01T13:23:44.853Z,99838.78
2022-10-01T13:26:42.237Z,99842.38
2022-10-01T13:30:04.427Z,99820.94
2022-10-01T13:33:01.226Z,99820.75
2022-10-01T13:35:59.832Z,99827.31
2022-10-01T13:38:47.480Z,99819.44
2022-10-01T13:41:35.014Z,99826.53
2022-10-01T13:44:33.030Z,99830.28
2022-10-01T13:47:19.708Z,99839.09
2022-10-01T13:50:17.725Z,99841.16
2022-10-01T13:53:17.441Z,99855.59
2022-10-01T13:56:04.843Z,99851.84
2022-10-01T13:58:51.767Z,99864.22
2022-10-01T14:01:40.169Z,99869.66
2022-10-01T14:04:36.073Z,99864.06
2022-10-01T14:07:27.718Z,99863.31
2022-10-01T14:10:15.496Z,99865.94
2022-10-01T14:13:23.008Z,99859.38
2022-10-01T14:16:08.806Z,99881.97
2022-10-01T14:18:54.558Z,99897.34
2022-10-01T14:22:03.150Z,99916.41
2022-10-01T14:24:57.615Z,99924.00
2022-10-01T14:28:06.623Z,99935.53
2022-10-01T14:31:06.284Z,99945.91
2022-10-01T14:34:19.084Z,99966.81
2022-10-01T14:37:08.438Z,99983.63
2022-10-01T14:40:21.716Z,99979.69
2022-10-01T14:43:19.303Z,99968.97
2022-10-01T14:46:06.515Z,99979.50
2022-10-01T14:48:59.881Z,99965.09
2022-10-01T14:51:55.717Z,99962.41
2022-10-01T14:54:52.302Z,99948.56
2022-10-01T14:57:44.927Z,99959.34
2022-10-01T15:00:32.283Z,99957.41
2022-10-01T15:03:18.061Z,99955.19
2022-10-01T15:06:13.370Z,99958.66
2022-10-01T15:09:18.420Z,99962.53
2022-10-01T15:12:05.836Z,99953.59
2022-10-01T15:14:54.043Z,99963.69
2022-10-01T15:17:42.356Z,99948.59
2022-10-01T15:20:27.976Z,99965.03
2022-10-01T15:23:13.565Z,99976.84
2022-10-01T15:26:02.671Z,99984.00
2022-10-01T15:28:48.965Z,99980.53
2022-10-01T15:31:34.831Z,99977.19
2022-10-01T15:34:22.574Z,99986.72
2022-10-01T15:37:18.079Z,99975.56
2022-10-01T15:40:07.198Z,99992.97
2022-10-01T15:43:25.137Z,100001.41
2022-10-01T15:46:15.191Z,100010.16
2022-10-01T15:49:20.575Z,100014.38
2022-10-01T15:52:24.408Z,100005.75
2022-10-01T15:55:15.504Z,100018.50
2022-10-01T15:58:10.190Z,100022.00
2022-10-01T16:01:03.776Z,100020.06
2022-10-01T16:04:07.163Z,100024.59
2022-10-01T16:06:53.062Z,100023.34
2022-10-01T16:09:51.640Z,100040.66
2022-10-01T16:12:37.521Z,100044.88
2022-10-01T16:15:26.539Z,100057.81
2022-10-01T16:18:22.267Z,100050.78
2022-10-01T16:21:10.914Z,100051.19
2022-10-01T16:23:56.673Z,100051.84
2022-10-01T16:26:43.288Z,100059.63
2022-10-01T16:29:28.651Z,100069.63
2022-10-01T16:32:14.866Z,100077.22
2022-10-01T16:35:16.121Z,100090.28
2022-10-01T16:38:06.570Z,100096.44
2022-10-01T16:40:52.802Z,100103.81
2022-10-01T16:43:38.962Z,100114.31
2022-10-01T16:46:24.460Z,100110.44
2022-10-01T16:49:14.437Z,100124.25
2022-10-01T16:51:59.832Z,100124.53
2022-10-01T16:54:47.288Z,100125.16
2022-10-01T16:57:32.929Z,100131.06
2022-10-01T17:00:19.905Z,100131.72
2022-10-01T17:03:08.992Z,100135.25
2022-10-01T17:05:54.320Z,100138.41
2022-10-01T17:08:40.120Z,100145.97
2022-10-01T17:11:26.867Z,100153.88
2022-10-01T17:14:17.548Z,100149.13
2022-10-01T17:17:02.794Z,100159.03
2022-10-01T17:19:48.572Z,100158.53
2022-10-01T17:22:34.052Z,100163.78
2022-10-01T17:25:22.076Z,100177.41
2022-10-01T17:28:11.889Z,100180.44
2022-10-01T17:30:57.267Z,100185.81
2022-10-01T17:33:43.238Z,100180.56
2022-10-01T17:36:28.584Z,100184.22
2022-10-01T17:39:14.281Z,100195.50
2022-10-01T17:41:59.589Z,100202.22
2022-10-01T17:44:45.192Z,100217.75
2022-10-01T17:47:30.744Z,100214.56
2022-10-01T17:50:16.970Z,100226.00
2022-10-01T17:53:02.413Z,100225.38
2022-10-01T17:55:48.099Z,100234.94
2022-10-01T17:58:33.429Z,100234.38
2022-10-01T18:01:21.017Z,100238.00
2022-10-01T18:04:06.811Z,100248.44
2022-10-01T18:06:56.095Z,100256.00
2022-10-01T18:09:45.923Z,100264.75
2022-10-01T18:12:31.383Z,100265.13
2022-10-01T18:15:20.172Z,100277.16
2022-10-01T18:19:24.301Z,100283.00
2022-10-01T18:21:13.928Z,100295.59
2022-10-01T18:24:03.423Z,100290.25
2022-10-01T18:26:50.366Z,100303.22
2022-10-01T18:29:35.894Z,100303.91
2022-10-01T18:32:24.692Z,100313.44
2022-10-01T18:35:32.515Z,100324.25
2022-10-01T18:38:27.135Z,100324.16
2022-10-01T18:41:23.215Z,100328.47
2022-10-01T18:44:16.792Z,100324.72
2022-10-01T18:47:17.393Z,100340.94
2022-10-01T18:50:34.238Z,100344.41
2022-10-01T18:53:34.626Z,100332.19
2022-10-01T18:56:41.491Z,100351.91
2022-10-01T18:59:51.739Z,100352.06
2022-10-01T19:05:51.463Z,100361.34
2022-10-01T19:09:21.483Z,100371.56
2022-10-01T19:12:34.091Z,100375.94
2022-10-01T19:15:33.675Z,100366.16
2022-10-01T19:18:41.435Z,100385.13
2022-10-01T19:21:51.219Z,100393.00
2022-10-01T19:24:53.134Z,100395.91
2022-10-01T19:28:06.391Z,100399.06
2022-10-01T19:31:07.104Z,100403.41
2022-10-01T19:34:00.813Z,100402.34
2022-10-01T19:36:54.960Z,100414.06
2022-10-01T19:39:43.660Z,100405.53
2022-10-01T19:42:33.784Z,100418.00
2022-10-01T19:45:33.056Z,100425.88
2022-10-01T19:48:24.851Z,100424.75
2022-10-01T19:51:15.037Z,100431.69
2022-10-01T19:54:02.055Z,100437.03
2022-10-01T19:56:59.720Z,100449.06
2022-10-01T19:59:46.506Z,100455.50
2022-10-01T20:02:57.722Z,100453.47
2022-10-01T20:05:53.085Z,100457.72
2022-10-01T20:08:46.651Z,100454.34
2022-10-01T20:11:43.012Z,100461.94
2022-10-01T20:15:10.455Z,100460.75
2022-10-01T20:18:04.014Z,100487.69
2022-10-01T20:21:07.916Z,100494.81
2022-10-01T20:24:20.680Z,100487.53
2022-10-01T20:27:32.681Z,100479.41
2022-10-01T20:30:20.408Z,100495.72
2022-10-01T20:33:43.155Z,100490.47
2022-10-01T20:36:43.984Z,100506.56
2022-10-01T20:39:34.143Z,100508.09
2022-10-01T20:42:25.986Z,100510.03
2022-10-01T20:45:18.375Z,100510.03
2022-10-01T20:48:31.590Z,100507.22
2022-10-01T20:51:35.972Z,100518.06
2022-10-01T20:54:31.438Z,100505.75
2022-10-01T20:57:34.240Z,100519.47
2022-10-01T21:00:26.377Z,100520.31
2022-10-01T21:03:17.944Z,100525.25
2022-10-01T21:06:11.947Z,100513.09
2022-10-01T21:09:03.555Z,100527.78
2022-10-01T21:12:11.901Z,100530.72
2022-10-01T21:14:57.562Z,100528.59
2022-10-01T21:18:08.014Z,100536.38
2022-10-01T21:21:16.644Z,100541.97
2022-10-01T21:24:31.469Z,100540.66
2022-10-01T21:27:45.425Z,100561.72
2022-10-01T21:30:53.013Z,100557.06
2022-10-01T21:33:46.359Z,100537.56
2022-10-01T21:36:47.251Z,100559.00
2022-10-01T21:39:52.122Z,100541.88
2022-10-01T21:43:07.021Z,100562.41
2022-10-01T21:46:15.434Z,100556.94
2022-10-01T21:49:26.919Z,100578.13
2022-10-01T21:52:44.345Z,100588.19
2022-10-01T21:55:53.569Z,100590.34
2022-10-01T21:59:16.854Z,100600.63
2022-10-01T22:02:20.503Z,100593.34
2022-10-01T22:05:29.313Z,100602.78
2022-10-01T22:08:29.993Z,100595.41
2022-10-01T22:11:20.805Z,100610.84
2022-10-01T22:14:18.146Z,100592.03
2022-10-01T22:17:11.535Z,100617.19
2022-10-01T22:20:01.559Z,100615.63
2022-10-01T22:22:50.638Z,100627.91
2022-10-01T22:25:44.974Z,100628.97
2022-10-01T22:28:37.521Z,100632.31
2022-10-01T22:31:33.821Z,100633.53
2022-10-01T22:34:26.153Z,100625.22
2022-10-01T22:37:21.718Z,100636.16
2022-10-01T22:40:17.995Z,100629.63
2022-10-01T22:43:12.022Z,100639.50
2022-10-01T22:46:17.859Z,100642.56
2022-10-01T22:49:27.992Z,100635.72
2022-10-01T22:52:37.058Z,100652.66
2022-10-01T22:55:30.624Z,100656.63
2022-10-01T22:58:43.362Z,100661.63
2022-10-01T23:01:46.230Z,100657.56
2022-10-01T23:04:40.706Z,100665.03
2022-10-01T23:07:50.556Z,100670.09
2022-10-01T23:10:59.604Z,100645.66
2022-10-01T23:14:11.378Z,100673.38
2022-10-01T23:17:06.244Z,100666.56
2022-10-01T23:20:03.664Z,100680.59
2022-10-01T23:23:20.104Z,100665.88
2022-10-01T23:26:19.502Z,100675.69
2022-10-01T23:29:27.667Z,100690.50
2022-10-01T23:32:31.681Z,100690.03
2022-10-01T23:35:42.614Z,100690.34
2022-10-01T23:38:30.951Z,100701.91
2022-10-01T23:41:26.098Z,100690.78
2022-10-01T23:44:20.842Z,100685.72
2022-10-01T23:47:13.587Z,100686.72
2022-10-01T23:50:01.783Z,100702.38
2022-10-01T23:53:04.850Z,100701.69
2022-10-01T23:56:26.339Z,100698.06
2022-10-01T23:59:36.733Z,100709.63
